sensor_id;sensor_type;location;lat;lon;timestamp;P1;durP1;ratioP1;P2;durP2;ratioP2
32032;SDS011;31720;52.638;9.216;2024-03-22T00:00:11;14.38;;;8.35;;
32032;SDS011;31720;52.638;9.216;2024-03-22T00:03:12;15.93;;;8.07;;
32032;SDS011;31720;52.638;9.216;2024-03-22T00:06:15;15.77;;;8.27;;
32032;SDS011;31720;52.638;9.216;2024-03-22T00:09:15;15.82;;;8.32;;
32032;SDS011;31720;52.638;9.216;2024-03-22T00:12:17;21.05;;;8.52;;
32032;SDS011;31720;52.638;9.216;2024-03-22T00:15:17;13.85;;;8.30;;
32032;SDS011;31720;52.638;9.216;2024-03-22T00:18:19;15.20;;;8.57;;
32032;SDS011;31720;52.638;9.216;2024-03-22T00:21:20;19.13;;;9.10;;
32032;SDS011;31720;52.638;9.216;2024-03-22T00:24:22;17.85;;;9.20;;
32032;SDS011;31720;52.638;9.216;2024-03-22T00:27:22;18.88;;;9.15;;
32032;SDS011;31720;52.638;9.216;2024-03-22T00:30:24;16.35;;;8.75;;
32032;SDS011;31720;52.638;9.216;2024-03-22T00:33:24;23.50;;;9.52;;
32032;SDS011;31720;52.638;9.216;2024-03-22T00:36:27;20.80;;;10.25;;
32032;SDS011;31720;52.638;9.216;2024-03-22T00:39:27;19.27;;;9.77;;
32032;SDS011;31720;52.638;9.216;2024-03-22T00:42:28;25.83;;;10.68;;
32032;SDS011;31720;52.638;9.216;2024-03-22T00:45:29;22.75;;;10.85;;
32032;SDS011;31720;52.638;9.216;2024-03-22T00:48:30;23.83;;;11.57;;
32032;SDS011;31720;52.638;9.216;2024-03-22T00:51:32;25.67;;;12.30;;
32032;SDS011;31720;52.638;9.216;2024-03-22T00:54:33;23.08;;;11.82;;
32032;SDS011;31720;52.638;9.216;2024-03-22T00:57:34;28.77;;;11.75;;
32032;SDS011;31720;52.638;9.216;2024-03-22T01:00:35;23.42;;;11.93;;
32032;SDS011;31720;52.638;9.216;2024-03-22T01:03:37;26.50;;;12.55;;
32032;SDS011;31720;52.638;9.216;2024-03-22T01:06:39;27.25;;;12.27;;
32032;SDS011;31720;52.638;9.216;2024-03-22T01:09:41;22.35;;;12.05;;
32032;SDS011;31720;52.638;9.216;2024-03-22T01:12:44;24.13;;;12.68;;
32032;SDS011;31720;52.638;9.216;2024-03-22T01:15:45;26.42;;;12.98;;
32032;SDS011;31720;52.638;9.216;2024-03-22T01:18:46;27.13;;;13.10;;
32032;SDS011;31720;52.638;9.216;2024-03-22T01:21:48;27.30;;;12.98;;
32032;SDS011;31720;52.638;9.216;2024-03-22T01:24:50;25.58;;;14.70;;
32032;SDS011;31720;52.638;9.216;2024-03-22T01:27:50;30.42;;;12.23;;
32032;SDS011;31720;52.638;9.216;2024-03-22T01:30:51;20.45;;;11.63;;
32032;SDS011;31720;52.638;9.216;2024-03-22T01:33:52;27.55;;;12.48;;
32032;SDS011;31720;52.638;9.216;2024-03-22T01:36:55;27.05;;;13.10;;
32032;SDS011;31720;52.638;9.216;2024-03-22T01:39:55;26.80;;;13.40;;
32032;SDS011;31720;52.638;9.216;2024-03-22T01:42:56;31.08;;;13.05;;
32032;SDS011;31720;52.638;9.216;2024-03-22T01:45:58;27.63;;;13.25;;
32032;SDS011;31720;52.638;9.216;2024-03-22T01:48:58;29.58;;;14.07;;
32032;SDS011;31720;52.638;9.216;2024-03-22T01:52:02;26.58;;;13.55;;
32032;SDS011;31720;52.638;9.216;2024-03-22T01:55:03;29.27;;;14.27;;
32032;SDS011;31720;52.638;9.216;2024-03-22T01:58:06;32.00;;;13.85;;
32032;SDS011;31720;52.638;9.216;2024-03-22T02:01:08;26.13;;;13.63;;
32032;SDS011;31720;52.638;9.216;2024-03-22T02:04:10;25.45;;;13.23;;
32032;SDS011;31720;52.638;9.216;2024-03-22T02:07:11;31.60;;;14.43;;
32032;SDS011;31720;52.638;9.216;2024-03-22T02:10:13;29.33;;;13.65;;
32032;SDS011;31720;52.638;9.216;2024-03-22T02:13:14;38.30;;;14.50;;
32032;SDS011;31720;52.638;9.216;2024-03-22T02:16:16;25.33;;;13.15;;
32032;SDS011;31720;52.638;9.216;2024-03-22T02:19:16;32.40;;;14.07;;
32032;SDS011;31720;52.638;9.216;2024-03-22T02:22:19;29.92;;;14.48;;
32032;SDS011;31720;52.638;9.216;2024-03-22T02:25:22;31.08;;;14.48;;
32032;SDS011;31720;52.638;9.216;2024-03-22T02:28:22;35.67;;;15.50;;
32032;SDS011;31720;52.638;9.216;2024-03-22T02:31:24;33.20;;;16.02;;
32032;SDS011;31720;52.638;9.216;2024-03-22T02:34:25;35.33;;;16.17;;
32032;SDS011;31720;52.638;9.216;2024-03-22T02:37:26;34.72;;;16.83;;
32032;SDS011;31720;52.638;9.216;2024-03-22T02:40:29;35.45;;;16.63;;
32032;SDS011;31720;52.638;9.216;2024-03-22T02:43:30;35.65;;;17.13;;
32032;SDS011;31720;52.638;9.216;2024-03-22T02:46:31;38.28;;;17.25;;
32032;SDS011;31720;52.638;9.216;2024-03-22T02:49:32;44.28;;;18.58;;
32032;SDS011;31720;52.638;9.216;2024-03-22T02:52:32;47.38;;;18.65;;
32032;SDS011;31720;52.638;9.216;2024-03-22T02:55:38;42.88;;;18.55;;
32032;SDS011;31720;52.638;9.216;2024-03-22T02:58:39;40.80;;;18.73;;
32032;SDS011;31720;52.638;9.216;2024-03-22T03:01:41;42.67;;;18.35;;
32032;SDS011;31720;52.638;9.216;2024-03-22T03:04:41;40.25;;;18.85;;
32032;SDS011;31720;52.638;9.216;2024-03-22T03:07:42;43.17;;;18.27;;
32032;SDS011;31720;52.638;9.216;2024-03-22T03:10:44;42.65;;;18.65;;
32032;SDS011;31720;52.638;9.216;2024-03-22T03:13:45;39.80;;;19.88;;
32032;SDS011;31720;52.638;9.216;2024-03-22T03:16:46;46.35;;;19.08;;
32032;SDS011;31720;52.638;9.216;2024-03-22T03:19:47;46.03;;;19.55;;
32032;SDS011;31720;52.638;9.216;2024-03-22T03:22:48;45.72;;;19.90;;
32032;SDS011;31720;52.638;9.216;2024-03-22T03:25:50;49.30;;;18.55;;
32032;SDS011;31720;52.638;9.216;2024-03-22T03:28:51;52.83;;;20.77;;
32032;SDS011;31720;52.638;9.216;2024-03-22T03:31:54;42.78;;;18.23;;
32032;SDS011;31720;52.638;9.216;2024-03-22T03:34:55;46.65;;;19.85;;
32032;SDS011;31720;52.638;9.216;2024-03-22T03:37:56;48.28;;;20.30;;
32032;SDS011;31720;52.638;9.216;2024-03-22T03:40:58;46.97;;;21.13;;
32032;SDS011;31720;52.638;9.216;2024-03-22T03:43:59;48.45;;;20.13;;
32032;SDS011;31720;52.638;9.216;2024-03-22T03:46:59;47.88;;;19.70;;
32032;SDS011;31720;52.638;9.216;2024-03-22T03:50:01;57.03;;;21.80;;
32032;SDS011;31720;52.638;9.216;2024-03-22T03:53:02;51.20;;;20.63;;
32032;SDS011;31720;52.638;9.216;2024-03-22T03:56:05;53.17;;;21.45;;
32032;SDS011;31720;52.638;9.216;2024-03-22T03:59:05;47.28;;;20.90;;
32032;SDS011;31720;52.638;9.216;2024-03-22T04:02:07;54.45;;;20.10;;
32032;SDS011;31720;52.638;9.216;2024-03-22T04:05:07;50.40;;;22.10;;
32032;SDS011;31720;52.638;9.216;2024-03-22T04:08:09;58.05;;;22.27;;
32032;SDS011;31720;52.638;9.216;2024-03-22T04:11:10;53.90;;;21.60;;
32032;SDS011;31720;52.638;9.216;2024-03-22T04:14:12;57.67;;;22.00;;
32032;SDS011;31720;52.638;9.216;2024-03-22T04:17:12;62.28;;;24.38;;
32032;SDS011;31720;52.638;9.216;2024-03-22T04:20:13;56.38;;;21.55;;
32032;SDS011;31720;52.638;9.216;2024-03-22T04:23:14;56.63;;;21.70;;
32032;SDS011;31720;52.638;9.216;2024-03-22T04:26:17;61.13;;;23.50;;
32032;SDS011;31720;52.638;9.216;2024-03-22T04:29:18;59.00;;;23.30;;
32032;SDS011;31720;52.638;9.216;2024-03-22T04:32:19;54.00;;;22.25;;
32032;SDS011;31720;52.638;9.216;2024-03-22T04:35:20;66.40;;;24.02;;
32032;SDS011;31720;52.638;9.216;2024-03-22T04:38:21;58.53;;;22.77;;
32032;SDS011;31720;52.638;9.216;2024-03-22T04:41:24;61.55;;;21.98;;
32032;SDS011;31720;52.638;9.216;2024-03-22T04:44:25;63.55;;;24.20;;
32032;SDS011;31720;52.638;9.216;2024-03-22T04:47:27;57.45;;;22.48;;
32032;SDS011;31720;52.638;9.216;2024-03-22T04:50:27;63.85;;;23.33;;
32032;SDS011;31720;52.638;9.216;2024-03-22T04:53:29;70.45;;;24.80;;
32032;SDS011;31720;52.638;9.216;2024-03-22T04:56:30;62.80;;;23.73;;
32032;SDS011;31720;52.638;9.216;2024-03-22T04:59:32;61.55;;;23.70;;
32032;SDS011;31720;52.638;9.216;2024-03-22T05:02:32;61.92;;;23.08;;
32032;SDS011;31720;52.638;9.216;2024-03-22T05:05:34;65.75;;;24.63;;
32032;SDS011;31720;52.638;9.216;2024-03-22T05:08:34;57.47;;;22.58;;
32032;SDS011;31720;52.638;9.216;2024-03-22T05:11:37;53.40;;;21.15;;
32032;SDS011;31720;52.638;9.216;2024-03-22T05:14:37;60.00;;;22.15;;
32032;SDS011;31720;52.638;9.216;2024-03-22T05:17:39;69.32;;;23.70;;
32032;SDS011;31720;52.638;9.216;2024-03-22T05:20:41;60.72;;;23.85;;
32032;SDS011;31720;52.638;9.216;2024-03-22T05:23:42;59.15;;;22.52;;
32032;SDS011;31720;52.638;9.216;2024-03-22T05:26:44;60.63;;;24.27;;
32032;SDS011;31720;52.638;9.216;2024-03-22T05:29:45;62.38;;;23.23;;
32032;SDS011;31720;52.638;9.216;2024-03-22T05:32:46;54.90;;;22.38;;
32032;SDS011;31720;52.638;9.216;2024-03-22T05:35:49;61.83;;;21.73;;
32032;SDS011;31720;52.638;9.216;2024-03-22T05:38:49;56.08;;;23.15;;
32032;SDS011;31720;52.638;9.216;2024-03-22T05:41:52;59.53;;;22.05;;
32032;SDS011;31720;52.638;9.216;2024-03-22T05:44:52;59.35;;;23.70;;
32032;SDS011;31720;52.638;9.216;2024-03-22T05:47:55;64.07;;;25.23;;
32032;SDS011;31720;52.638;9.216;2024-03-22T05:50:55;60.67;;;24.00;;
32032;SDS011;31720;52.638;9.216;2024-03-22T05:53:56;72.13;;;23.70;;
32032;SDS011;31720;52.638;9.216;2024-03-22T05:56:59;56.88;;;22.40;;
32032;SDS011;31720;52.638;9.216;2024-03-22T06:00:00;70.13;;;24.10;;
32032;SDS011;31720;52.638;9.216;2024-03-22T06:03:02;58.35;;;21.50;;
32032;SDS011;31720;52.638;9.216;2024-03-22T06:06:04;57.38;;;21.25;;
32032;SDS011;31720;52.638;9.216;2024-03-22T06:09:04;63.47;;;22.77;;
32032;SDS011;31720;52.638;9.216;2024-03-22T06:12:10;64.80;;;23.40;;
32032;SDS011;31720;52.638;9.216;2024-03-22T06:15:12;52.88;;;22.13;;
32032;SDS011;31720;52.638;9.216;2024-03-22T06:18:12;67.32;;;23.20;;
32032;SDS011;31720;52.638;9.216;2024-03-22T06:21:14;58.08;;;21.58;;
32032;SDS011;31720;52.638;9.216;2024-03-22T06:24:14;69.55;;;23.63;;
32032;SDS011;31720;52.638;9.216;2024-03-22T06:27:17;60.50;;;22.75;;
32032;SDS011;31720;52.638;9.216;2024-03-22T06:30:17;61.35;;;21.05;;
32032;SDS011;31720;52.638;9.216;2024-03-22T06:33:19;61.78;;;22.08;;
32032;SDS011;31720;52.638;9.216;2024-03-22T06:36:19;57.15;;;21.15;;
32032;SDS011;31720;52.638;9.216;2024-03-22T06:39:22;57.08;;;22.25;;
32032;SDS011;31720;52.638;9.216;2024-03-22T06:42:25;54.13;;;21.15;;
32032;SDS011;31720;52.638;9.216;2024-03-22T06:45:26;57.75;;;21.83;;
32032;SDS011;31720;52.638;9.216;2024-03-22T06:48:28;57.55;;;20.58;;
32032;SDS011;31720;52.638;9.216;2024-03-22T06:51:28;67.30;;;20.70;;
32032;SDS011;31720;52.638;9.216;2024-03-22T06:54:29;54.75;;;20.45;;
32032;SDS011;31720;52.638;9.216;2024-03-22T06:57:32;51.00;;;19.75;;
32032;SDS011;31720;52.638;9.216;2024-03-22T07:00:33;48.75;;;19.60;;
32032;SDS011;31720;52.638;9.216;2024-03-22T07:03:35;49.17;;;19.58;;
32032;SDS011;31720;52.638;9.216;2024-03-22T07:06:35;56.83;;;19.20;;
32032;SDS011;31720;52.638;9.216;2024-03-22T07:09:36;47.42;;;17.60;;
32032;SDS011;31720;52.638;9.216;2024-03-22T07:12:38;46.65;;;17.70;;
32032;SDS011;31720;52.638;9.216;2024-03-22T07:15:40;46.75;;;19.45;;
32032;SDS011;31720;52.638;9.216;2024-03-22T07:18:40;52.38;;;17.90;;
32032;SDS011;31720;52.638;9.216;2024-03-22T07:21:42;43.53;;;17.02;;
32032;SDS011;31720;52.638;9.216;2024-03-22T07:24:42;48.22;;;16.27;;
32032;SDS011;31720;52.638;9.216;2024-03-22T07:27:45;41.40;;;17.27;;
32032;SDS011;31720;52.638;9.216;2024-03-22T07:30:46;52.20;;;18.02;;
32032;SDS011;31720;52.638;9.216;2024-03-22T07:33:47;49.35;;;19.38;;
32032;SDS011;31720;52.638;9.216;2024-03-22T07:36:48;45.85;;;19.10;;
32032;SDS011;31720;52.638;9.216;2024-03-22T07:39:49;55.40;;;19.15;;
32032;SDS011;31720;52.638;9.216;2024-03-22T07:42:52;52.60;;;19.60;;
32032;SDS011;31720;52.638;9.216;2024-03-22T07:45:53;53.70;;;19.85;;
32032;SDS011;31720;52.638;9.216;2024-03-22T07:48:55;42.65;;;19.17;;
32032;SDS011;31720;52.638;9.216;2024-03-22T07:51:55;53.50;;;18.98;;
32032;SDS011;31720;52.638;9.216;2024-03-22T07:54:57;52.45;;;20.67;;
32032;SDS011;31720;52.638;9.216;2024-03-22T07:57:59;45.15;;;18.52;;
32032;SDS011;31720;52.638;9.216;2024-03-22T08:01:00;53.50;;;19.10;;
32032;SDS011;31720;52.638;9.216;2024-03-22T08:04:01;57.10;;;20.95;;
32032;SDS011;31720;52.638;9.216;2024-03-22T08:07:01;50.95;;;20.50;;
32032;SDS011;31720;52.638;9.216;2024-03-22T08:10:03;55.92;;;20.13;;
32032;SDS011;31720;52.638;9.216;2024-03-22T08:13:05;58.95;;;20.95;;
32032;SDS011;31720;52.638;9.216;2024-03-22T08:16:07;68.32;;;22.45;;
32032;SDS011;31720;52.638;9.216;2024-03-22T08:19:07;55.42;;;21.35;;
32032;SDS011;31720;52.638;9.216;2024-03-22T08:22:09;57.17;;;20.92;;
32032;SDS011;31720;52.638;9.216;2024-03-22T08:25:10;61.70;;;21.60;;
32032;SDS011;31720;52.638;9.216;2024-03-22T08:28:12;59.25;;;22.10;;
32032;SDS011;31720;52.638;9.216;2024-03-22T08:31:14;68.18;;;23.15;;
32032;SDS011;31720;52.638;9.216;2024-03-22T08:34:15;69.03;;;23.70;;
32032;SDS011;31720;52.638;9.216;2024-03-22T08:37:16;68.47;;;23.50;;
32032;SDS011;31720;52.638;9.216;2024-03-22T08:40:17;71.30;;;23.98;;
32032;SDS011;31720;52.638;9.216;2024-03-22T08:43:20;65.85;;;23.23;;
32032;SDS011;31720;52.638;9.216;2024-03-22T08:46:22;60.72;;;24.17;;
32032;SDS011;31720;52.638;9.216;2024-03-22T08:49:24;60.72;;;25.02;;
32032;SDS011;31720;52.638;9.216;2024-03-22T08:52:26;67.22;;;24.98;;
32032;SDS011;31720;52.638;9.216;2024-03-22T08:55:26;65.75;;;25.30;;
32032;SDS011;31720;52.638;9.216;2024-03-22T08:58:29;63.03;;;24.42;;
32032;SDS011;31720;52.638;9.216;2024-03-22T09:01:30;61.20;;;23.38;;
32032;SDS011;31720;52.638;9.216;2024-03-22T09:04:31;70.85;;;26.60;;
32032;SDS011;31720;52.638;9.216;2024-03-22T09:07:32;73.63;;;26.65;;
32032;SDS011;31720;52.638;9.216;2024-03-22T09:10:32;64.13;;;24.67;;
32032;SDS011;31720;52.638;9.216;2024-03-22T09:13:35;70.95;;;26.15;;
32032;SDS011;31720;52.638;9.216;2024-03-22T09:16:36;77.28;;;26.13;;
32032;SDS011;31720;52.638;9.216;2024-03-22T09:19:37;65.70;;;25.77;;
32032;SDS011;31720;52.638;9.216;2024-03-22T09:22:38;74.28;;;26.77;;
32032;SDS011;31720;52.638;9.216;2024-03-22T09:25:39;79.47;;;28.40;;
32032;SDS011;31720;52.638;9.216;2024-03-22T09:28:42;71.35;;;25.83;;
32032;SDS011;31720;52.638;9.216;2024-03-22T09:31:43;65.85;;;26.33;;
32032;SDS011;31720;52.638;9.216;2024-03-22T09:34:43;69.10;;;27.73;;
32032;SDS011;31720;52.638;9.216;2024-03-22T09:37:45;86.75;;;28.65;;
32032;SDS011;31720;52.638;9.216;2024-03-22T09:40:46;65.72;;;24.92;;
32032;SDS011;31720;52.638;9.216;2024-03-22T09:43:48;66.10;;;26.25;;
32032;SDS011;31720;52.638;9.216;2024-03-22T09:46:51;73.22;;;27.30;;
32032;SDS011;31720;52.638;9.216;2024-03-22T09:49:52;69.82;;;26.10;;
32032;SDS011;31720;52.638;9.216;2024-03-22T09:52:53;76.40;;;26.67;;
32032;SDS011;31720;52.638;9.216;2024-03-22T09:55:57;65.70;;;26.58;;
32032;SDS011;31720;52.638;9.216;2024-03-22T09:59:03;65.20;;;24.92;;
32032;SDS011;31720;52.638;9.216;2024-03-22T10:02:03;68.93;;;26.52;;
32032;SDS011;31720;52.638;9.216;2024-03-22T10:05:05;66.00;;;25.55;;
32032;SDS011;31720;52.638;9.216;2024-03-22T10:08:06;63.85;;;25.98;;
32032;SDS011;31720;52.638;9.216;2024-03-22T10:11:08;59.88;;;23.88;;
32032;SDS011;31720;52.638;9.216;2024-03-22T10:14:09;55.33;;;23.17;;
32032;SDS011;31720;52.638;9.216;2024-03-22T10:17:11;51.70;;;24.23;;
32032;SDS011;31720;52.638;9.216;2024-03-22T10:20:12;55.38;;;24.55;;
32032;SDS011;31720;52.638;9.216;2024-03-22T10:23:14;57.80;;;23.52;;
32032;SDS011;31720;52.638;9.216;2024-03-22T10:26:15;44.95;;;20.10;;
32032;SDS011;31720;52.638;9.216;2024-03-22T10:29:19;47.10;;;21.00;;
32032;SDS011;31720;52.638;9.216;2024-03-22T10:32:20;48.17;;;18.75;;
32032;SDS011;31720;52.638;9.216;2024-03-22T10:35:23;43.17;;;19.48;;
32032;SDS011;31720;52.638;9.216;2024-03-22T10:38:24;48.78;;;19.98;;
32032;SDS011;31720;52.638;9.216;2024-03-22T10:41:27;52.45;;;18.85;;
32032;SDS011;31720;52.638;9.216;2024-03-22T10:44:29;43.13;;;18.90;;
32032;SDS011;31720;52.638;9.216;2024-03-22T10:47:31;53.10;;;18.88;;
32032;SDS011;31720;52.638;9.216;2024-03-22T10:50:33;46.30;;;18.63;;
32032;SDS011;31720;52.638;9.216;2024-03-22T10:53:35;43.63;;;18.30;;
32032;SDS011;31720;52.638;9.216;2024-03-22T10:56:38;42.92;;;18.00;;
32032;SDS011;31720;52.638;9.216;2024-03-22T10:59:43;41.28;;;18.02;;
32032;SDS011;31720;52.638;9.216;2024-03-22T11:02:43;45.08;;;18.83;;
32032;SDS011;31720;52.638;9.216;2024-03-22T11:05:46;46.45;;;19.85;;
32032;SDS011;31720;52.638;9.216;2024-03-22T11:08:49;40.63;;;17.55;;
32032;SDS011;31720;52.638;9.216;2024-03-22T11:11:52;43.95;;;17.65;;
32032;SDS011;31720;52.638;9.216;2024-03-22T11:14:55;39.85;;;16.25;;
32032;SDS011;31720;52.638;9.216;2024-03-22T11:17:56;38.03;;;16.63;;
32032;SDS011;31720;52.638;9.216;2024-03-22T11:20:57;34.83;;;16.52;;
32032;SDS011;31720;52.638;9.216;2024-03-22T11:24:00;33.22;;;15.82;;
32032;SDS011;31720;52.638;9.216;2024-03-22T11:27:00;36.47;;;15.95;;
32032;SDS011;31720;52.638;9.216;2024-03-22T11:30:03;40.42;;;16.92;;
32032;SDS011;31720;52.638;9.216;2024-03-22T11:33:05;32.67;;;15.35;;
32032;SDS011;31720;52.638;9.216;2024-03-22T11:36:06;36.13;;;16.42;;
32032;SDS011;31720;52.638;9.216;2024-03-22T11:39:08;34.90;;;15.23;;
32032;SDS011;31720;52.638;9.216;2024-03-22T11:42:09;37.40;;;16.27;;
32032;SDS011;31720;52.638;9.216;2024-03-22T11:45:12;38.00;;;16.15;;
32032;SDS011;31720;52.638;9.216;2024-03-22T11:48:15;43.40;;;16.63;;
32032;SDS011;31720;52.638;9.216;2024-03-22T11:51:16;34.80;;;16.02;;
32032;SDS011;31720;52.638;9.216;2024-03-22T11:54:18;39.17;;;15.20;;
32032;SDS011;31720;52.638;9.216;2024-03-22T11:57:20;34.90;;;15.55;;
32032;SDS011;31720;52.638;9.216;2024-03-22T12:00:22;41.63;;;15.82;;
32032;SDS011;31720;52.638;9.216;2024-03-22T12:03:25;32.45;;;15.07;;
32032;SDS011;31720;52.638;9.216;2024-03-22T12:06:26;37.60;;;15.93;;
32032;SDS011;31720;52.638;9.216;2024-03-22T12:09:27;33.97;;;14.18;;
32032;SDS011;31720;52.638;9.216;2024-03-22T12:12:28;36.63;;;16.90;;
32032;SDS011;31720;52.638;9.216;2024-03-22T12:15:31;42.70;;;15.40;;
32032;SDS011;31720;52.638;9.216;2024-03-22T12:18:32;36.50;;;14.52;;
32032;SDS011;31720;52.638;9.216;2024-03-22T12:21:34;32.30;;;13.57;;
32032;SDS011;31720;52.638;9.216;2024-03-22T12:24:35;31.48;;;13.70;;
32032;SDS011;31720;52.638;9.216;2024-03-22T12:27:36;33.88;;;13.60;;
32032;SDS011;31720;52.638;9.216;2024-03-22T12:30:39;30.25;;;13.52;;
32032;SDS011;31720;52.638;9.216;2024-03-22T12:33:39;33.13;;;14.25;;
32032;SDS011;31720;52.638;9.216;2024-03-22T12:36:41;31.70;;;13.20;;
32032;SDS011;31720;52.638;9.216;2024-03-22T12:39:41;30.60;;;12.57;;
32032;SDS011;31720;52.638;9.216;2024-03-22T12:42:42;31.65;;;12.55;;
32032;SDS011;31720;52.638;9.216;2024-03-22T12:45:45;26.40;;;12.50;;
32032;SDS011;31720;52.638;9.216;2024-03-22T12:48:47;24.48;;;11.80;;
32032;SDS011;31720;52.638;9.216;2024-03-22T12:51:48;27.90;;;11.27;;
32032;SDS011;31720;52.638;9.216;2024-03-22T12:54:49;31.10;;;12.25;;
32032;SDS011;31720;52.638;9.216;2024-03-22T12:57:50;30.80;;;10.40;;
32032;SDS011;31720;52.638;9.216;2024-03-22T13:00:52;21.70;;;10.25;;
32032;SDS011;31720;52.638;9.216;2024-03-22T13:03:54;24.98;;;9.63;;
32032;SDS011;31720;52.638;9.216;2024-03-22T13:06:54;23.33;;;9.35;;
32032;SDS011;31720;52.638;9.216;2024-03-22T13:09:56;22.02;;;10.70;;
32032;SDS011;31720;52.638;9.216;2024-03-22T13:12:56;22.92;;;9.23;;
32032;SDS011;31720;52.638;9.216;2024-03-22T13:15:59;22.10;;;10.32;;
32032;SDS011;31720;52.638;9.216;2024-03-22T13:19:02;28.00;;;12.27;;
32032;SDS011;31720;52.638;9.216;2024-03-22T13:22:04;32.22;;;13.02;;
32032;SDS011;31720;52.638;9.216;2024-03-22T13:25:05;26.45;;;11.63;;
32032;SDS011;31720;52.638;9.216;2024-03-22T13:28:09;24.70;;;9.50;;
32032;SDS011;31720;52.638;9.216;2024-03-22T13:31:11;25.38;;;10.68;;
32032;SDS011;31720;52.638;9.216;2024-03-22T13:34:12;29.10;;;10.65;;
32032;SDS011;31720;52.638;9.216;2024-03-22T13:37:13;27.05;;;11.40;;
32032;SDS011;31720;52.638;9.216;2024-03-22T13:40:14;28.65;;;10.77;;
32032;SDS011;31720;52.638;9.216;2024-03-22T13:43:15;27.90;;;11.90;;
32032;SDS011;31720;52.638;9.216;2024-03-22T13:46:17;23.52;;;10.07;;
32032;SDS011;31720;52.638;9.216;2024-03-22T13:49:18;25.83;;;11.40;;
32032;SDS011;31720;52.638;9.216;2024-03-22T13:52:20;25.92;;;11.07;;
32032;SDS011;31720;52.638;9.216;2024-03-22T13:55:21;26.17;;;10.50;;
32032;SDS011;31720;52.638;9.216;2024-03-22T13:58:22;20.73;;;9.05;;
32032;SDS011;31720;52.638;9.216;2024-03-22T14:01:24;21.25;;;9.32;;
32032;SDS011;31720;52.638;9.216;2024-03-22T14:04:25;22.50;;;10.13;;
32032;SDS011;31720;52.638;9.216;2024-03-22T14:07:26;19.85;;;9.10;;
32032;SDS011;31720;52.638;9.216;2024-03-22T14:10:28;19.80;;;9.00;;
32032;SDS011;31720;52.638;9.216;2024-03-22T14:13:31;16.60;;;8.02;;
32032;SDS011;31720;52.638;9.216;2024-03-22T14:16:33;21.70;;;8.07;;
32032;SDS011;31720;52.638;9.216;2024-03-22T14:19:34;20.50;;;8.63;;
32032;SDS011;31720;52.638;9.216;2024-03-22T14:22:35;19.35;;;8.07;;
32032;SDS011;31720;52.638;9.216;2024-03-22T14:25:36;17.05;;;7.05;;
32032;SDS011;31720;52.638;9.216;2024-03-22T14:28:37;15.20;;;7.63;;
32032;SDS011;31720;52.638;9.216;2024-03-22T14:31:41;12.98;;;6.97;;
32032;SDS011;31720;52.638;9.216;2024-03-22T14:34:42;13.93;;;6.80;;
32032;SDS011;31720;52.638;9.216;2024-03-22T14:37:43;14.60;;;7.28;;
32032;SDS011;31720;52.638;9.216;2024-03-22T14:40:44;16.67;;;7.35;;
32032;SDS011;31720;52.638;9.216;2024-03-22T14:43:45;14.75;;;6.97;;
32032;SDS011;31720;52.638;9.216;2024-03-22T14:46:47;17.88;;;6.88;;
32032;SDS011;31720;52.638;9.216;2024-03-22T14:49:49;13.75;;;6.22;;
32032;SDS011;31720;52.638;9.216;2024-03-22T14:52:49;14.23;;;7.07;;
32032;SDS011;31720;52.638;9.216;2024-03-22T14:55:53;16.92;;;6.63;;
32032;SDS011;31720;52.638;9.216;2024-03-22T14:58:58;13.30;;;5.93;;
32032;SDS011;31720;52.638;9.216;2024-03-22T15:02:01;15.75;;;6.72;;
32032;SDS011;31720;52.638;9.216;2024-03-22T15:05:02;20.65;;;7.63;;
32032;SDS011;31720;52.638;9.216;2024-03-22T15:08:04;14.10;;;7.05;;
32032;SDS011;31720;52.638;9.216;2024-03-22T15:11:06;12.73;;;6.50;;
32032;SDS011;31720;52.638;9.216;2024-03-22T15:14:07;13.77;;;6.60;;
32032;SDS011;31720;52.638;9.216;2024-03-22T15:17:09;15.35;;;7.32;;
32032;SDS011;31720;52.638;9.216;2024-03-22T15:20:11;12.27;;;6.25;;
32032;SDS011;31720;52.638;9.216;2024-03-22T15:23:13;14.57;;;6.93;;
32032;SDS011;31720;52.638;9.216;2024-03-22T15:26:13;11.65;;;6.20;;
32032;SDS011;31720;52.638;9.216;2024-03-22T15:29:15;14.02;;;6.15;;
32032;SDS011;31720;52.638;9.216;2024-03-22T15:32:16;14.02;;;6.57;;
32032;SDS011;31720;52.638;9.216;2024-03-22T15:35:20;15.95;;;6.63;;
32032;SDS011;31720;52.638;9.216;2024-03-22T15:38:20;11.57;;;5.90;;
32032;SDS011;31720;52.638;9.216;2024-03-22T15:41:21;13.90;;;6.05;;
32032;SDS011;31720;52.638;9.216;2024-03-22T15:44:22;10.38;;;5.13;;
32032;SDS011;31720;52.638;9.216;2024-03-22T15:47:25;11.95;;;6.10;;
32032;SDS011;31720;52.638;9.216;2024-03-22T15:50:25;12.02;;;5.55;;
32032;SDS011;31720;52.638;9.216;2024-03-22T15:53:27;13.18;;;6.32;;
32032;SDS011;31720;52.638;9.216;2024-03-22T15:56:27;11.55;;;5.43;;
32032;SDS011;31720;52.638;9.216;2024-03-22T15:59:29;9.90;;;5.65;;
32032;SDS011;31720;52.638;9.216;2024-03-22T16:02:31;11.48;;;5.32;;
32032;SDS011;31720;52.638;9.216;2024-03-22T16:05:32;11.40;;;5.18;;
32032;SDS011;31720;52.638;9.216;2024-03-22T16:08:33;9.27;;;4.43;;
32032;SDS011;31720;52.638;9.216;2024-03-22T16:11:34;8.70;;;5.00;;
32032;SDS011;31720;52.638;9.216;2024-03-22T16:14:35;10.48;;;5.20;;
32032;SDS011;31720;52.638;9.216;2024-03-22T16:17:39;11.00;;;5.18;;
32032;SDS011;31720;52.638;9.216;2024-03-22T16:20:40;10.50;;;5.30;;
32032;SDS011;31720;52.638;9.216;2024-03-22T16:23:41;9.85;;;4.93;;
32032;SDS011;31720;52.638;9.216;2024-03-22T16:26:43;10.65;;;6.50;;
32032;SDS011;31720;52.638;9.216;2024-03-22T16:29:44;9.65;;;4.95;;
32032;SDS011;31720;52.638;9.216;2024-03-22T16:32:47;11.90;;;4.97;;
32032;SDS011;31720;52.638;9.216;2024-03-22T16:35:47;8.93;;;5.20;;
32032;SDS011;31720;52.638;9.216;2024-03-22T16:38:48;8.75;;;4.30;;
32032;SDS011;31720;52.638;9.216;2024-03-22T16:41:49;10.30;;;4.78;;
32032;SDS011;31720;52.638;9.216;2024-03-22T16:44:50;9.30;;;4.78;;
32032;SDS011;31720;52.638;9.216;2024-03-22T16:47:52;9.77;;;4.85;;
32032;SDS011;31720;52.638;9.216;2024-03-22T16:50:53;8.93;;;4.60;;
32032;SDS011;31720;52.638;9.216;2024-03-22T16:53:54;7.70;;;4.15;;
32032;SDS011;31720;52.638;9.216;2024-03-22T16:56:55;9.65;;;5.00;;
32032;SDS011;31720;52.638;9.216;2024-03-22T16:59:56;9.00;;;4.68;;
32032;SDS011;31720;52.638;9.216;2024-03-22T17:02:58;6.57;;;3.33;;
32032;SDS011;31720;52.638;9.216;2024-03-22T17:05:59;8.07;;;3.60;;
32032;SDS011;31720;52.638;9.216;2024-03-22T17:09:01;5.22;;;2.88;;
32032;SDS011;31720;52.638;9.216;2024-03-22T17:12:02;7.85;;;2.50;;
32032;SDS011;31720;52.638;9.216;2024-03-22T17:15:05;5.70;;;2.30;;
32032;SDS011;31720;52.638;9.216;2024-03-22T17:18:08;8.40;;;3.17;;
32032;SDS011;31720;52.638;9.216;2024-03-22T17:21:09;6.47;;;2.58;;
32032;SDS011;31720;52.638;9.216;2024-03-22T17:24:09;8.20;;;3.45;;
32032;SDS011;31720;52.638;9.216;2024-03-22T17:27:11;14.13;;;5.45;;
32032;SDS011;31720;52.638;9.216;2024-03-22T17:30:11;9.13;;;4.43;;
32032;SDS011;31720;52.638;9.216;2024-03-22T17:33:14;5.60;;;2.85;;
32032;SDS011;31720;52.638;9.216;2024-03-22T17:36:14;5.57;;;2.85;;
32032;SDS011;31720;52.638;9.216;2024-03-22T17:39:16;9.18;;;2.33;;
32032;SDS011;31720;52.638;9.216;2024-03-22T17:42:16;5.82;;;3.25;;
32032;SDS011;31720;52.638;9.216;2024-03-22T17:45:17;8.32;;;2.63;;